Time;durP1;ratioP1;P1;durP2;ratioP2;P2;SDS_P1;SDS_P2;PMS_P1;PMS_P2;Temp;Humidity;BMP_temperature;BMP_pressure;BME280_temperature;BME280_humidity;BME280_pressure;Samples;Min_cycle;Max_cycle;Signal;HPM_P1;HPM_P2
2022/12/29 00:02:07;;;;;;;2.35;2.13;;;8.30;99.90;;;;;;7409584;19;19943;-66
2022/12/29 00:04:39;;;;;;;2.65;1.98;;;8.40;99.90;;;;;;7408491;19;19925;-65
2022/12/29 00:07:09;;;;;;;2.70;2.13;;;8.40;99.90;;;;;;7408901;19;20329;-66
2022/12/29 00:09:38;;;;;;;2.60;2.00;;;8.40;99.90;;;;;;7408820;19;19914;-65
2022/12/29 00:12:07;;;;;;;2.53;1.95;;;8.50;99.90;;;;;;7408806;19;19914;-66
2022/12/29 00:17:18;;;;;;;3.25;2.25;;;8.50;99.90;;;;;;7409752;19;19914;-66
2022/12/29 00:36:09;;;;;;;3.13;2.60;;;8.40;99.90;;;;;;7407491;19;19939;-66
2022/12/29 00:44:10;;;;;;;2.67;2.15;;;8.40;99.90;;;;;;7408396;19;19910;-66
2022/12/29 00:46:40;;;;;;;3.03;2.38;;;8.30;99.90;;;;;;7406456;19;19938;-65
2022/12/29 00:52:10;;;;;;;3.80;3.42;;;8.50;99.90;;;;;;7405122;19;19926;-66
2022/12/29 00:54:44;;;;;;;3.40;2.65;;;8.40;99.90;;;;;;7405903;19;19914;-67
2022/12/29 00:57:14;;;;;;;2.97;2.42;;;8.30;99.90;;;;;;7407048;19;19921;-67
2022/12/29 00:59:45;;;;;;;5.45;3.03;;;8.50;99.90;;;;;;7406874;19;19934;-67
2022/12/29 01:02:14;;;;;;;3.47;2.58;;;8.40;99.90;;;;;;7406699;19;20015;-66
2022/12/29 01:04:43;;;;;;;5.00;3.05;;;8.40;99.90;;;;;;7407488;19;20010;-67
2022/12/29 01:07:14;;;;;;;3.97;2.80;;;8.40;99.90;;;;;;7407296;19;19907;-67
2022/12/29 01:15:08;;;;;;;3.38;2.00;;;8.50;99.90;;;;;;7404950;19;19926;-66
2022/12/29 01:17:37;;;;;;;2.97;1.98;;;8.50;99.90;;;;;;7411130;19;20329;-67
2022/12/29 01:20:08;;;;;;;3.47;2.47;;;8.50;99.90;;;;;;7407013;19;19914;-66
2022/12/29 01:22:42;;;;;;;3.60;2.60;;;8.60;99.90;;;;;;7407513;19;19919;-67
2022/12/29 01:25:11;;;;;;;3.40;2.25;;;8.60;99.90;;;;;;7406972;19;20356;-66
2022/12/29 01:27:40;;;;;;;3.22;2.50;;;8.80;99.90;;;;;;7406834;19;20309;-67
2022/12/29 01:30:10;;;;;;;3.13;2.03;;;8.60;99.90;;;;;;7407376;19;20331;-67
2022/12/29 01:32:43;;;;;;;3.22;2.55;;;8.80;99.90;;;;;;7406560;19;20570;-66
2022/12/29 01:35:13;;;;;;;3.13;2.38;;;8.60;99.90;;;;;;7405055;19;20263;-67
2022/12/29 01:37:45;;;;;;;3.47;2.17;;;8.70;99.90;;;;;;7405255;19;19930;-66
2022/12/29 01:40:15;;;;;;;4.10;2.20;;;8.50;99.90;;;;;;7406272;19;19918;-67
2022/12/29 01:42:44;;;;;;;2.90;2.10;;;8.70;99.90;;;;;;7406489;19;19918;-66
2022/12/29 01:45:15;;;;;;;2.53;1.98;;;8.70;99.90;;;;;;7405876;19;19936;-66
2022/12/29 01:47:48;;;;;;;3.60;2.13;;;8.80;99.90;;;;;;7406364;19;19931;-66
2022/12/29 01:50:22;;;;;;;4.40;2.03;;;8.90;99.90;;;;;;7406204;19;19914;-66
2022/12/29 01:52:59;;;;;;;3.13;2.17;;;8.70;99.90;;;;;;7407124;19;20202;-66
2022/12/29 01:55:29;;;;;;;3.88;2.00;;;8.80;99.90;;;;;;7406142;19;19970;-66
2022/12/29 01:58:02;;;;;;;2.55;1.73;;;8.80;99.90;;;;;;7405961;19;19935;-66
2022/12/29 02:00:31;;;;;;;3.67;2.00;;;8.90;99.90;;;;;;7406229;19;19922;-66
2022/12/29 02:03:00;;;;;;;3.60;1.83;;;8.80;99.90;;;;;;7405415;19;19919;-66
2022/12/29 02:05:37;;;;;;;3.08;1.77;;;8.90;99.90;;;;;;7406266;19;19919;-67
2022/12/29 02:08:09;;;;;;;3.47;1.90;;;8.90;99.90;;;;;;7405477;19;19925;-67
2022/12/29 02:10:39;;;;;;;2.45;1.77;;;8.90;99.90;;;;;;7406028;19;19932;-66
2022/12/29 02:13:09;;;;;;;2.63;1.50;;;9.00;99.90;;;;;;7404924;19;20273;-67
2022/12/29 02:15:54;;;;;;;1.92;1.67;;;8.90;99.90;;;;;;7403655;19;20271;-66
2022/12/29 02:18:33;;;;;;;4.93;1.67;;;9.10;99.90;;;;;;7405234;19;19978;-67
2022/12/29 02:21:32;;;;;;;1.95;1.50;;;9.10;99.90;;;;;;7405425;19;19919;-66
2022/12/29 02:24:32;;;;;;;3.15;1.70;;;9.10;99.90;;;;;;7405427;19;19915;-66
2022/12/29 02:27:29;;;;;;;2.05;1.50;;;9.10;99.90;;;;;;7405797;19;19994;-67
2022/12/29 02:30:14;;;;;;;2.70;1.30;;;9.10;99.90;;;;;;7403118;19;20320;-67
2022/12/29 02:32:55;;;;;;;2.53;1.48;;;9.10;99.90;;;;;;7404971;19;19941;-67
2022/12/29 02:35:33;;;;;;;2.30;1.35;;;9.10;99.90;;;;;;7403215;19;20285;-66
2022/12/29 02:38:13;;;;;;;3.30;1.63;;;9.10;99.90;;;;;;7404790;19;19942;-66
2022/12/29 02:40:45;;;;;;;4.18;1.63;;;9.10;99.90;;;;;;7403290;19;19918;-66
2022/12/29 02:43:24;;;;;;;2.88;1.63;;;9.20;99.90;;;;;;7405825;19;19923;-66
2022/12/29 02:45:59;;;;;;;2.95;1.40;;;9.20;99.90;;;;;;7403686;19;19911;-66
2022/12/29 02:48:35;;;;;;;3.03;1.17;;;9.30;99.90;;;;;;7404519;19;19911;-66
2022/12/29 02:51:06;;;;;;;4.07;1.45;;;9.30;99.90;;;;;;7404528;19;19929;-67
2022/12/29 02:56:19;;;;;;;2.70;1.42;;;9.30;99.90;;;;;;7404572;19;20225;-67
2022/12/29 02:58:48;;;;;;;3.78;1.63;;;9.20;99.90;;;;;;7404755;19;19918;-66
2022/12/29 03:01:32;;;;;;;2.25;1.58;;;9.10;99.90;;;;;;7404109;19;19943;-66
2022/12/29 03:04:24;;;;;;;1.58;1.13;;;9.20;99.90;;;;;;7404226;19;19915;-67
2022/12/29 03:07:03;;;;;;;1.75;1.23;;;9.20;99.90;;;;;;7404571;19;20320;-67
2022/12/29 03:09:44;;;;;;;3.10;1.23;;;9.20;99.90;;;;;;7403637;19;19915;-67
2022/12/29 03:12:23;;;;;;;1.75;1.23;;;9.10;99.90;;;;;;7403886;19;19938;-66
2022/12/29 03:17:54;;;;;;;1.33;1.08;;;9.20;99.90;;;;;;7404161;19;19922;-66
2022/12/29 03:20:33;;;;;;;2.45;1.10;;;9.00;99.90;;;;;;7404148;19;19925;-66
2022/12/29 03:23:05;;;;;;;3.38;1.60;;;9.20;99.90;;;;;;7402297;19;19918;-66
2022/12/29 03:25:36;;;;;;;;;;;9.10;99.90;;;;;;7406320;19;19911;-66
2022/12/29 03:28:10;;;;;;;2.03;1.08;;;9.30;99.90;;;;;;7403821;19;19914;-66
2022/12/29 03:30:42;;;;;;;2.88;1.10;;;9.10;99.90;;;;;;7403816;19;19927;-66
2022/12/29 03:33:14;;;;;;;2.78;1.17;;;9.20;99.90;;;;;;7403081;19;20567;-66
2022/12/29 03:35:48;;;;;;;3.65;1.20;;;9.20;99.90;;;;;;7401561;19;19919;-67
2022/12/29 03:38:22;;;;;;;1.40;0.95;;;9.10;99.90;;;;;;7403587;19;19970;-66
2022/12/29 03:40:54;;;;;;;2.45;1.02;;;9.10;99.90;;;;;;7403894;19;19915;-66
2022/12/29 03:43:24;;;;;;;1.85;1.00;;;9.20;99.90;;;;;;7404509;19;20352;-66
2022/12/29 03:45:53;;;;;;;2.35;0.80;;;9.10;99.90;;;;;;7402207;19;19919;-66
2022/12/29 03:48:22;;;;;;;1.50;1.10;;;9.10;99.90;;;;;;7403187;19;20233;-66
2022/12/29 03:50:53;;;;;;;1.40;1.00;;;9.10;99.90;;;;;;7402858;19;19924;-66
2022/12/29 03:53:23;;;;;;;1.88;0.90;;;9.10;99.90;;;;;;7402592;19;20597;-66
2022/12/29 03:55:52;;;;;;;1.92;1.08;;;9.20;99.90;;;;;;7400960;19;19925;-66
2022/12/29 03:58:21;;;;;;;2.83;0.80;;;9.30;99.90;;;;;;7401854;19;19910;-66
2022/12/29 04:00:50;;;;;;;0.82;0.75;;;8.90;99.90;;;;;;7402675;19;19923;-66
2022/12/29 04:03:19;;;;;;;1.30;0.85;;;9.10;99.90;;;;;;7401632;19;19971;-66
2022/12/29 04:05:47;;;;;;;2.13;0.95;;;9.10;99.90;;;;;;7402540;19;20378;-66
2022/12/29 04:08:19;;;;;;;2.38;0.90;;;9.10;99.90;;;;;;7402401;19;19918;-66
2022/12/29 04:10:51;;;;;;;1.77;0.90;;;9.10;99.90;;;;;;7402325;19;19936;-66
2022/12/29 04:13:20;;;;;;;1.10;0.93;;;9.10;99.90;;;;;;7402713;19;20023;-65
2022/12/29 04:15:49;;;;;;;3.10;1.00;;;9.00;99.90;;;;;;7400235;19;19911;-65
2022/12/29 04:18:20;;;;;;;1.17;0.80;;;9.10;99.90;;;;;;7401846;19;19926;-66
2022/12/29 04:23:35;;;;;;;1.95;1.00;;;9.00;99.90;;;;;;7401366;19;20245;-66
2022/12/29 04:26:06;;;;;;;1.92;0.95;;;9.10;99.90;;;;;;7401815;19;19974;-66
2022/12/29 04:28:36;;;;;;;0.85;0.80;;;9.10;99.90;;;;;;7401799;19;20276;-66
2022/12/29 04:31:08;;;;;;;2.25;0.80;;;9.20;99.90;;;;;;7401822;19;19918;-66
2022/12/29 04:33:45;;;;;;;2.35;0.90;;;9.00;99.90;;;;;;7400843;19;20277;-66
2022/12/29 04:36:14;;;;;;;0.77;0.77;;;9.10;99.90;;;;;;7404654;19;19937;-66
2022/12/29 04:38:46;;;;;;;3.33;0.70;;;9.10;99.90;;;;;;7408263;19;20340;-65
2022/12/29 04:41:15;;;;;;;1.95;0.90;;;9.10;99.90;;;;;;7408520;19;19914;-66
2022/12/29 04:43:44;;;;;;;3.38;0.90;;;9.00;99.90;;;;;;7409700;19;19926;-66
2022/12/29 04:46:13;;;;;;;2.35;0.60;;;9.00;99.90;;;;;;7406189;19;19915;-66
2022/12/29 04:48:42;;;;;;;1.95;0.50;;;9.00;99.90;;;;;;7408260;19;19930;-66
2022/12/29 04:51:11;;;;;;;1.95;0.60;;;9.00;99.90;;;;;;7407974;19;19915;-66
2022/12/29 04:53:41;;;;;;;0.70;0.68;;;9.10;99.90;;;;;;7408152;19;19918;-66
2022/12/29 04:56:13;;;;;;;1.65;0.40;;;9.10;99.90;;;;;;7405532;19;19922;-66
2022/12/29 04:58:42;;;;;;;1.48;0.65;;;9.00;99.90;;;;;;7407811;19;19978;-66
2022/12/29 05:01:11;;;;;;;1.17;0.30;;;9.10;99.90;;;;;;7410955;19;20583;-66
2022/12/29 05:03:40;;;;;;;1.38;0.40;;;9.00;99.90;;;;;;7407113;19;20274;-66
2022/12/29 05:06:09;;;;;;;1.60;0.63;;;9.00;99.90;;;;;;7407533;19;19928;-65
2022/12/29 05:08:39;;;;;;;0.90;0.30;;;9.00;99.90;;;;;;7407377;19;19914;-66
2022/12/29 05:11:08;;;;;;;3.90;0.40;;;9.00;99.90;;;;;;7408035;19;19922;-65
2022/12/29 05:13:40;;;;;;;4.72;0.52;;;8.90;99.90;;;;;;7410804;19;20415;-67
2022/12/29 05:16:09;;;;;;;0.82;0.30;;;8.90;99.90;;;;;;7406072;19;19932;-66
2022/12/29 05:18:39;;;;;;;1.23;0.50;;;8.90;99.90;;;;;;7407485;19;19999;-66
2022/12/29 05:21:08;;;;;;;1.08;0.50;;;8.90;99.90;;;;;;7407810;19;19962;-67
2022/12/29 05:23:37;;;;;;;2.63;0.40;;;8.90;99.90;;;;;;7407534;19;20289;-67
2022/12/29 05:26:07;;;;;;;3.30;0.70;;;8.80;99.90;;;;;;7407108;19;19929;-66
2022/12/29 05:28:36;;;;;;;3.78;0.70;;;8.70;99.90;;;;;;7407784;19;19926;-67
2022/12/29 05:31:07;;;;;;;4.40;0.95;;;8.70;99.90;;;;;;7406922;19;20006;-67
2022/12/29 05:33:36;;;;;;;3.15;0.63;;;8.70;99.90;;;;;;7406520;19;20044;-67
2022/12/29 05:36:07;;;;;;;2.92;0.60;;;8.70;99.90;;;;;;7404794;19;19942;-67
2022/12/29 05:38:36;;;;;;;1.85;0.50;;;8.80;99.90;;;;;;7406435;19;19930;-66
2022/12/29 05:41:05;;;;;;;2.63;0.88;;;8.80;99.90;;;;;;7406895;19;20321;-67
2022/12/29 05:43:34;;;;;;;4.13;0.85;;;8.70;99.90;;;;;;7409600;19;19915;-67
2022/12/29 05:46:03;;;;;;;4.13;1.30;;;8.70;99.90;;;;;;7403474;19;20528;-67
2022/12/29 05:48:36;;;;;;;4.57;0.70;;;8.60;99.90;;;;;;7406322;19;20361;-66
2022/12/29 05:51:06;;;;;;;5.03;0.90;;;8.60;99.90;;;;;;7405802;19;19990;-66
2022/12/29 05:53:35;;;;;;;4.60;0.90;;;8.70;99.90;;;;;;7406095;19;19914;-67
2022/12/29 05:56:04;;;;;;;3.95;1.60;;;8.70;99.90;;;;;;7404313;19;20327;-66
2022/12/29 05:58:33;;;;;;;4.68;0.80;;;8.60;99.90;;;;;;7405853;19;19911;-66
2022/12/29 06:01:02;;;;;;;3.22;0.88;;;8.60;99.90;;;;;;7405782;19;19928;-66
2022/12/29 06:03:38;;;;;;;3.92;1.17;;;8.70;99.90;;;;;;7405476;19;19921;-66
2022/12/29 06:06:08;;;;;;;6.65;0.85;;;8.60;99.90;;;;;;7405926;19;19982;-67
2022/12/29 06:08:42;;;;;;;4.97;0.88;;;8.60;99.90;;;;;;7406092;19;19914;-67
2022/12/29 06:11:10;;;;;;;3.03;1.00;;;8.60;99.90;;;;;;7405689;19;20329;-66
2022/12/29 06:13:40;;;;;;;6.65;1.00;;;8.60;99.90;;;;;;7407902;19;19922;-67
2022/12/29 06:16:09;;;;;;;4.47;0.93;;;8.60;99.90;;;;;;7404261;19;19915;-66
2022/12/29 06:18:42;;;;;;;5.30;0.70;;;8.60;99.90;;;;;;7405684;19;19986;-66
2022/12/29 06:21:11;;;;;;;3.60;0.93;;;8.50;99.90;;;;;;7405570;19;20058;-66
2022/12/29 06:23:42;;;;;;;5.75;1.13;;;8.50;99.90;;;;;;7405301;19;19915;-66
2022/12/29 06:26:11;;;;;;;3.67;0.43;;;8.60;99.90;;;;;;7405243;19;20433;-66
2022/12/29 06:28:41;;;;;;;4.25;0.82;;;8.50;99.90;;;;;;7405294;19;19944;-66
2022/12/29 06:31:13;;;;;;;;;;;8.50;99.90;;;;;;7408357;19;19923;-66
2022/12/29 06:34:04;;;;;;;2.08;0.45;;;8.60;99.90;;;;;;7403388;19;19951;-66
2022/12/29 06:36:54;;;;;;;3.30;0.80;;;8.60;99.90;;;;;;7401407;19;19934;-66
2022/12/29 06:39:43;;;;;;;4.20;0.88;;;8.50;99.90;;;;;;7403544;19;19914;-66
2022/12/29 06:42:32;;;;;;;3.60;0.73;;;8.70;99.90;;;;;;7407933;19;19922;-66
2022/12/29 06:45:21;;;;;;;4.22;0.80;;;8.70;99.90;;;;;;7402508;19;19922;-67
2022/12/29 06:48:09;;;;;;;2.47;0.65;;;8.60;99.90;;;;;;7403229;19;19959;-66
2022/12/29 06:51:01;;;;;;;4.45;0.80;;;8.60;99.90;;;;;;7403100;19;19918;-65
2022/12/29 06:53:30;;;;;;;4.57;0.95;;;8.50;99.90;;;;;;7404537;19;19915;-65
2022/12/29 06:55:59;;;;;;;3.40;0.85;;;8.70;99.90;;;;;;7403465;19;19918;-65
2022/12/29 06:58:28;;;;;;;7.88;1.52;;;8.70;99.90;;;;;;7401593;19;19922;-66
2022/12/29 07:00:57;;;;;;;2.97;1.00;;;8.60;99.90;;;;;;7404385;19;19918;-65
2022/12/29 07:03:26;;;;;;;6.53;1.83;;;8.60;99.90;;;;;;7403519;19;19918;-66
2022/12/29 07:05:57;;;;;;;4.50;1.17;;;8.70;99.90;;;;;;7404033;19;20233;-65
2022/12/29 07:08:29;;;;;;;3.90;0.77;;;8.60;99.90;;;;;;7404183;19;19910;-65
2022/12/29 07:10:58;;;;;;;6.60;0.93;;;8.50;99.90;;;;;;7404311;19;19906;-65
2022/12/29 07:13:27;;;;;;;2.72;0.90;;;8.50;99.90;;;;;;7402566;19;19914;-66
2022/12/29 07:15:56;;;;;;;6.05;1.02;;;8.50;99.90;;;;;;7401227;19;19917;-65
2022/12/29 07:18:25;;;;;;;4.45;0.90;;;8.50;99.90;;;;;;7404044;19;20586;-65
2022/12/29 07:20:54;;;;;;;5.70;0.85;;;8.50;99.90;;;;;;7403596;19;19929;-65
2022/12/29 07:23:24;;;;;;;8.27;1.30;;;8.50;99.90;;;;;;7404115;19;19925;-65
2022/12/29 07:26:01;;;;;;;7.78;1.60;;;8.40;99.90;;;;;;7403131;19;20296;-65
2022/12/29 07:28:32;;;;;;;5.10;0.82;;;8.50;99.90;;;;;;7403762;19;19919;-66
2022/12/29 07:31:02;;;;;;;8.10;1.05;;;8.40;99.90;;;;;;7402852;19;19914;-65
2022/12/29 07:33:31;;;;;;;4.95;1.00;;;8.60;99.90;;;;;;7403251;19;20313;-65
2022/12/29 07:36:02;;;;;;;5.45;1.10;;;8.50;99.90;;;;;;7402480;19;19915;-65
2022/12/29 07:38:31;;;;;;;7.97;1.42;;;8.40;99.90;;;;;;7403401;19;19942;-65
2022/12/29 07:41:03;;;;;;;6.95;1.48;;;8.40;99.90;;;;;;7405876;19;19926;-65
2022/12/29 07:43:32;;;;;;;4.38;0.80;;;8.40;99.90;;;;;;7403191;19;19914;-66
2022/12/29 07:46:02;;;;;;;3.25;0.90;;;8.40;99.90;;;;;;7401553;19;19915;-66
2022/12/29 07:48:33;;;;;;;6.88;1.00;;;8.30;99.90;;;;;;7402690;19;19926;-66
2022/12/29 07:51:02;;;;;;;6.95;1.15;;;8.50;99.90;;;;;;7403220;19;19925;-66
2022/12/29 07:53:31;;;;;;;6.68;1.00;;;8.40;99.90;;;;;;7402579;19;19939;-66
2022/12/29 07:56:02;;;;;;;3.38;1.00;;;8.50;99.90;;;;;;7401552;19;19923;-66
2022/12/29 07:58:31;;;;;;;8.05;1.30;;;8.40;99.90;;;;;;7402620;19;19925;-65
2022/12/29 08:01:00;;;;;;;8.40;1.30;;;8.60;99.90;;;;;;7401879;19;19922;-66
2022/12/29 08:03:30;;;;;;;7.20;1.40;;;8.50;99.90;;;;;;7401612;19;20014;-65
2022/12/29 08:05:59;;;;;;;1.73;0.70;;;8.60;99.90;;;;;;7402542;19;19951;-65
2022/12/29 08:08:28;;;;;;;6.00;1.38;;;8.50;99.90;;;;;;7401320;19;19921;-65
2022/12/29 08:10:57;;;;;;;6.55;1.02;;;8.60;99.90;;;;;;7410526;19;19939;-66
2022/12/29 08:13:29;;;;;;;8.13;1.27;;;8.50;99.90;;;;;;7408373;19;20241;-65
2022/12/29 08:16:00;;;;;;;5.80;1.00;;;8.50;99.90;;;;;;7408094;19;20374;-65
2022/12/29 08:18:29;;;;;;;5.88;1.05;;;8.60;99.90;;;;;;7408409;19;19942;-65
2022/12/29 08:21:03;;;;;;;4.65;1.08;;;8.60;99.90;;;;;;7409070;19;19929;-65
2022/12/29 08:23:43;;;;;;;7.03;1.10;;;8.60;99.90;;;;;;7408657;19;19944;-65
2022/12/29 08:26:13;;;;;;;5.65;1.02;;;8.60;99.90;;;;;;7408676;19;19937;-66
2022/12/29 08:28:45;;;;;;;6.22;2.15;;;8.60;99.90;;;;;;7408710;19;19950;-66
2022/12/29 08:31:14;;;;;;;9.13;1.25;;;8.60;99.90;;;;;;7407831;19;19915;-66
2022/12/29 08:33:43;;;;;;;7.43;1.17;;;8.60;99.90;;;;;;7407576;19;19914;-66
2022/12/29 08:36:12;;;;;;;7.60;1.50;;;8.60;99.90;;;;;;7406872;19;19941;-66
2022/12/29 08:38:41;;;;;;;5.40;1.00;;;8.50;99.90;;;;;;7408048;19;20351;-66
2022/12/29 08:41:13;;;;;;;6.55;1.15;;;8.40;99.90;;;;;;7405587;19;20273;-66
2022/12/29 08:43:48;;;;;;;7.10;0.80;;;8.60;99.90;;;;;;7407937;19;19914;-66
2022/12/29 08:46:18;;;;;;;4.18;1.20;;;8.60;99.90;;;;;;7405601;19;20292;-66
2022/12/29 08:48:47;;;;;;;5.57;1.30;;;8.50;99.90;;;;;;7407955;19;19929;-66
2022/12/29 08:51:16;;;;;;;9.20;1.88;;;8.60;99.90;;;;;;7408134;19;19918;-66
2022/12/29 08:53:46;;;;;;;8.77;2.08;;;8.70;99.90;;;;;;7407923;19;19914;-66
2022/12/29 08:56:15;;;;;;;9.35;1.52;;;6.60;99.90;;;;;;7406408;19;20015;-66
2022/12/29 08:58:46;;;;;;;7.47;2.15;;;8.60;99.90;;;;;;7407817;19;19978;-66
2022/12/29 09:01:15;;;;;;;6.10;1.45;;;8.70;99.90;;;;;;7407577;19;19978;-66
2022/12/29 09:03:45;;;;;;;5.50;1.20;;;8.70;99.90;;;;;;7406821;19;19910;-67
2022/12/29 09:06:14;;;;;;;10.77;1.85;;;8.70;99.90;;;;;;7407008;19;19921;-66
2022/12/29 09:08:43;;;;;;;6.43;1.48;;;8.80;99.90;;;;;;7408880;19;19986;-65
2022/12/29 09:11:17;;;;;;;12.10;1.50;;;8.80;99.90;;;;;;7407287;19;19914;-66
2022/12/29 09:13:49;;;;;;;6.97;1.20;;;8.70;99.90;;;;;;7406834;19;20377;-66
2022/12/29 09:16:19;;;;;;;8.70;1.60;;;8.80;99.90;;;;;;7406079;19;19943;-66
2022/12/29 09:18:48;;;;;;;8.93;1.25;;;8.70;99.90;;;;;;7406815;19;20023;-66
2022/12/29 09:21:16;;;;;;;11.05;1.70;;;8.70;99.90;;;;;;7404717;19;19915;-66
2022/12/29 09:23:47;;;;;;;6.10;1.35;;;8.80;99.90;;;;;;7407154;19;19922;-66
2022/12/29 09:26:15;;;;;;;7.57;1.48;;;8.60;99.90;;;;;;7407024;19;19978;-66
2022/12/29 09:28:45;;;;;;;11.40;1.55;;;8.80;99.90;;;;;;7406610;19;19919;-66
2022/12/29 09:31:16;;;;;;;10.90;1.67;;;8.60;99.90;;;;;;7406870;19;20329;-66
2022/12/29 09:33:48;;;;;;;5.53;1.30;;;8.80;99.90;;;;;;7408581;19;19938;-65
2022/12/29 09:36:17;;;;;;;5.20;1.20;;;8.70;99.90;;;;;;7405597;19;19923;-66
2022/12/29 09:38:46;;;;;;;7.47;1.15;;;8.90;99.90;;;;;;7408499;19;20340;-65
2022/12/29 09:41:22;;;;;;;8.95;1.50;;;8.70;99.90;;;;;;7407271;19;19974;-65
2022/12/29 09:44:15;;;;;;;8.05;1.17;;;8.60;99.90;;;;;;7406006;19;19914;-65
2022/12/29 09:46:50;;;;;;;11.00;1.50;;;8.50;99.90;;;;;;7404572;19;19923;-66
2022/12/29 09:49:30;;;;;;;6.57;0.85;;;8.30;99.90;;;;;;7406434;19;19936;-66
2022/12/29 09:52:04;;;;;;;6.15;1.45;;;8.40;99.90;;;;;;7405770;19;19915;-66
2022/12/29 09:54:45;;;;;;;6.40;1.30;;;8.40;99.90;;;;;;7406607;19;19915;-66
2022/12/29 09:57:20;;;;;;;6.53;1.20;;;8.30;99.90;;;;;;7404277;19;19910;-66
2022/12/29 09:59:53;;;;;;;7.13;1.40;;;8.20;99.90;;;;;;7406092;19;19914;-66
2022/12/29 10:02:40;;;;;;;6.13;1.02;;;8.10;99.90;;;;;;7406393;19;19935;-66
2022/12/29 10:05:31;;;;;;;4.18;1.13;;;8.00;99.90;;;;;;7405493;19;19915;-65
2022/12/29 10:08:22;;;;;;;9.25;1.83;;;8.10;99.90;;;;;;7408078;19;19989;-66
2022/12/29 10:10:58;;;;;;;6.47;1.48;;;8.10;99.90;;;;;;7405095;19;19910;-65
2022/12/29 10:13:35;;;;;;;8.60;1.38;;;8.10;99.90;;;;;;7405173;19;20347;-66
2022/12/29 10:16:07;;;;;;;;;;;8.30;99.90;;;;;;7407649;19;19978;-66
2022/12/29 10:19:09;;;;;;;7.70;1.23;;;8.20;99.90;;;;;;7405678;19;19921;-66
2022/12/29 10:21:59;;;;;;;6.57;1.30;;;8.40;99.90;;;;;;7405110;19;19923;-66
2022/12/29 10:24:30;;;;;;;12.25;1.30;;;8.20;99.90;;;;;;7405979;19;19926;-66
2022/12/29 10:27:01;;;;;;;5.50;1.30;;;8.20;99.90;;;;;;7405107;19;19923;-66
2022/12/29 10:29:39;;;;;;;7.07;1.52;;;8.20;99.90;;;;;;7405100;19;19922;-66
2022/12/29 10:32:16;;;;;;;8.07;1.35;;;8.10;99.90;;;;;;7405348;19;19919;-66
2022/12/29 10:34:52;;;;;;;7.95;1.30;;;8.10;99.90;;;;;;7405649;19;19918;-66
2022/12/29 10:37:32;;;;;;;6.43;1.13;;;8.10;99.90;;;;;;7408297;19;19918;-67
2022/12/29 10:40:01;;;;;;;4.63;1.35;;;8.10;99.90;;;;;;7406076;19;20310;-66
2022/12/29 10:42:37;;;;;;;5.50;1.13;;;8.00;99.90;;;;;;7406240;19;19994;-66
2022/12/29 10:45:08;;;;;;;6.75;1.83;;;8.00;99.90;;;;;;7404895;19;19915;-66
2022/12/29 10:47:45;;;;;;;5.82;0.93;;;8.00;99.90;;;;;;7405446;19;19935;-67
2022/12/29 10:50:17;;;;;;;9.82;2.00;;;7.90;99.90;;;;;;7404430;19;20018;-66
2022/12/29 10:52:46;;;;;;;7.70;1.33;;;7.80;99.90;;;;;;7405145;19;19918;-66
2022/12/29 10:55:19;;;;;;;6.30;1.38;;;7.90;99.90;;;;;;7404046;19;19921;-66
2022/12/29 10:57:49;;;;;;;6.40;1.05;;;7.80;99.90;;;;;;7402868;19;19919;-67
2022/12/29 11:00:21;;;;;;;5.22;1.38;;;7.90;99.90;;;;;;7404246;19;19918;-67
2022/12/29 11:03:22;;;;;;;11.48;1.83;;;7.70;99.90;;;;;;7403592;19;19922;-66
2022/12/29 11:05:58;;;;;;;9.20;1.92;;;7.70;99.90;;;;;;7405043;19;20341;-66
2022/12/29 11:08:32;;;;;;;6.97;1.52;;;7.70;99.90;;;;;;7404321;19;19946;-66
2022/12/29 11:11:03;;;;;;;5.78;1.13;;;7.80;99.90;;;;;;7403810;19;20330;-66
2022/12/29 11:13:38;;;;;;;5.32;1.10;;;7.70;99.90;;;;;;7403895;19;19915;-66
2022/12/29 11:16:07;;;;;;;8.75;1.30;;;7.90;99.90;;;;;;7403549;19;20319;-66
2022/12/29 11:18:39;;;;;;;3.50;1.40;;;7.80;99.90;;;;;;7404332;19;20252;-66
2022/12/29 11:21:30;;;;;;;5.22;1.30;;;7.70;99.90;;;;;;7403698;19;19964;-66
2022/12/29 11:24:02;;;;;;;2.35;0.70;;;7.80;99.90;;;;;;7403565;19;20322;-66
2022/12/29 11:26:33;;;;;;;3.40;0.85;;;7.80;99.90;;;;;;7403224;19;19932;-66
2022/12/29 11:29:23;;;;;;;5.15;1.17;;;7.80;99.90;;;;;;7403203;19;19910;-66
2022/12/29 11:31:54;;;;;;;3.25;1.00;;;7.80;99.90;;;;;;7402762;19;19929;-66
2022/12/29 11:34:26;;;;;;;7.28;0.90;;;7.80;99.90;;;;;;7403040;19;19935;-66
2022/12/29 11:37:05;;;;;;;4.35;0.75;;;7.80;99.90;;;;;;7405764;19;19974;-66
2022/12/29 11:39:42;;;;;;;6.97;1.08;;;7.70;99.90;;;;;;7403432;19;19918;-67
2022/12/29 11:42:17;;;;;;;8.18;1.00;;;7.70;99.90;;;;;;7402663;19;19910;-67
2022/12/29 11:44:49;;;;;;;3.92;0.98;;;7.70;99.90;;;;;;7400764;19;19914;-66
2022/12/29 11:47:29;;;;;;;7.18;1.45;;;7.70;99.90;;;;;;7402398;19;20443;-66
2022/12/29 11:50:22;;;;;;;6.50;1.08;;;7.70;99.90;;;;;;7401281;19;20238;-67
2022/12/29 11:53:19;;;;;;;3.53;1.30;;;7.70;99.90;;;;;;7400950;19;20096;-66
2022/12/29 11:56:13;;;;;;;3.63;0.88;;;7.80;99.90;;;;;;7400947;19;19929;-66
2022/12/29 11:59:42;;;;;;;6.38;1.27;;;8.00;99.90;;;;;;7400983;19;19915;-66
2022/12/29 12:02:46;;;;;;;7.07;1.70;;;8.20;99.90;;;;;;7399836;19;19922;-68
2022/12/29 12:05:42;;;;;;;9.70;1.80;;;8.10;99.90;;;;;;7400888;19;20312;-67
2022/12/29 12:08:38;;;;;;;8.73;1.95;;;8.10;99.90;;;;;;7396734;19;19918;-68
2022/12/29 12:11:36;;;;;;;6.38;1.10;;;8.10;99.90;;;;;;7401112;19;19922;-68
2022/12/29 12:14:31;;;;;;;8.52;1.38;;;8.20;99.90;;;;;;7400560;19;19926;-68
2022/12/29 12:17:27;;;;;;;8.23;1.50;;;8.30;99.90;;;;;;7400944;19;20230;-66
2022/12/29 12:20:21;;;;;;;9.00;1.55;;;8.60;99.90;;;;;;7399226;19;19996;-72
2022/12/29 12:23:21;;;;;;;8.10;2.42;;;8.60;99.90;;;;;;7399841;19;19919;-68
2022/12/29 12:26:18;;;;;;;9.95;1.98;;;8.70;99.90;;;;;;7404998;19;20377;-69
2022/12/29 12:29:13;;;;;;;6.57;1.40;;;8.60;99.90;;;;;;7400179;19;19923;-68
2022/12/29 12:32:08;;;;;;;11.27;1.83;;;8.40;99.90;;;;;;7400116;19;19921;-74
2022/12/29 12:34:57;;;;;;;8.68;2.33;;;8.30;99.90;;;;;;7398111;19;19918;-73
2022/12/29 12:38:03;;;;;;;10.70;1.92;;;8.40;99.90;;;;;;7401612;19;19914;-72
2022/12/29 12:40:44;;;;;;;11.63;1.52;;;8.40;99.90;;;;;;7405168;19;19922;-73
2022/12/29 12:43:41;;;;;;;14.57;2.97;;;8.30;99.90;;;;;;7399017;19;19986;-72
2022/12/29 12:46:42;;;;;;;6.68;1.58;;;8.30;99.90;;;;;;7400054;19;19931;-73
2022/12/29 12:49:40;;;;;;;8.73;1.50;;;8.20;99.90;;;;;;7402309;19;20375;-72
2022/12/29 12:52:17;;;;;;;16.08;2.17;;;8.10;99.90;;;;;;7403314;19;19914;-73
2022/12/29 12:55:01;;;;;;;7.05;1.20;;;8.20;99.90;;;;;;7403343;19;19939;-68
2022/12/29 12:57:43;;;;;;;12.27;1.95;;;8.20;99.90;;;;;;7403055;19;19939;-74
2022/12/29 13:00:19;;;;;;;10.40;1.55;;;8.40;99.90;;;;;;7411704;19;20708;-74
2022/12/29 13:03:04;;;;;;;14.05;2.45;;;8.50;99.90;;;;;;7406821;19;19925;-74
2022/12/29 13:05:48;;;;;;;6.35;2.00;;;8.70;99.90;;;;;;7409693;19;19918;-73
2022/12/29 13:08:56;;;;;;;10.30;2.15;;;8.80;99.90;;;;;;7408053;19;20019;-71
2022/12/29 13:11:38;;;;;;;5.55;1.08;;;9.00;99.90;;;;;;7406152;19;19911;-71
2022/12/29 13:14:19;;;;;;;11.13;1.52;;;9.10;99.90;;;;;;7408779;19;19943;-70
2022/12/29 13:16:58;;;;;;;7.75;1.52;;;9.00;99.90;;;;;;7406135;19;19932;-70
2022/12/29 13:19:37;;;;;;;5.60;0.95;;;9.00;99.90;;;;;;7407104;19;19914;-68
2022/12/29 13:22:12;;;;;;;12.55;1.95;;;9.00;99.90;;;;;;7406586;19;20015;-71
2022/12/29 13:24:57;;;;;;;2.90;0.77;;;9.00;99.90;;;;;;7410191;19;19911;-67
2022/12/29 13:27:36;;;;;;;6.88;1.05;;;8.90;99.90;;;;;;7403265;19;19919;-70
2022/12/29 13:30:12;;;;;;;9.35;2.03;;;8.80;99.90;;;;;;7409695;19;19932;-67
2022/12/29 13:32:59;;;;;;;8.25;1.90;;;8.70;99.90;;;;;;7405771;19;19929;-68
2022/12/29 13:35:53;;;;;;;13.38;2.30;;;8.70;99.90;;;;;;7409762;19;19939;-67
2022/12/29 13:38:26;;;;;;;11.20;2.10;;;8.60;99.90;;;;;;7404360;19;19918;-67
2022/12/29 13:40:59;;;;;;;6.80;1.65;;;8.60;99.90;;;;;;7406679;19;19939;-67
2022/12/29 13:43:31;;;;;;;6.82;1.67;;;8.60;99.90;;;;;;7410102;19;19991;-68
2022/12/29 13:46:02;;;;;;;;;;;8.40;99.90;;;;;;7406873;19;19964;-70
2022/12/29 13:48:42;;;;;;;11.63;1.58;;;8.40;99.90;;;;;;7405141;19;20295;-68
2022/12/29 13:51:12;;;;;;;;;;;8.40;99.90;;;;;;7407747;19;19922;-69
2022/12/29 13:53:54;;;;;;;7.38;1.77;;;8.40;99.90;;;;;;7408875;19;19926;-67
2022/12/29 13:56:27;;;;;;;9.98;1.40;;;8.30;99.90;;;;;;7407139;19;20340;-67
2022/12/29 13:59:03;;;;;;;8.68;1.30;;;8.30;99.90;;;;;;7405244;19;19995;-69
2022/12/29 14:01:36;;;;;;;9.85;1.48;;;8.30;99.90;;;;;;7405659;19;19922;-68
2022/12/29 14:04:14;;;;;;;10.57;1.50;;;8.40;99.90;;;;;;7408308;19;19993;-67
2022/12/29 14:06:43;;;;;;;11.40;1.52;;;8.40;99.90;;;;;;7407971;19;19978;-68
2022/12/29 14:09:35;;;;;;;5.72;1.50;;;8.20;99.90;;;;;;7405956;19;19923;-68
2022/12/29 14:12:14;;;;;;;7.90;2.13;;;8.20;99.90;;;;;;7406921;19;20285;-67
2022/12/29 14:14:43;;;;;;;4.22;1.27;;;8.40;99.90;;;;;;7405416;19;19978;-68
2022/12/29 14:17:13;;;;;;;5.53;1.80;;;8.30;99.90;;;;;;7405306;19;19986;-68
2022/12/29 14:19:47;;;;;;;14.20;1.85;;;8.30;99.90;;;;;;7406176;19;20541;-68
2022/12/29 14:22:25;;;;;;;8.88;1.05;;;8.40;99.90;;;;;;7407523;19;19929;-68